Time;durP1;ratioP1;P1;durP2;ratioP2;P2;SDS_P1;SDS_P2;PMS_P1;PMS_P2;Temp;Humidity;BMP_temperature;BMP_pressure;BME280_temperature;BME280_humidity;BME280_pressure;Samples;Min_cycle;Max_cycle;Signal;HPM_P1;HPM_P2
2022/06/22 00:01:40;;;;;;;5.20;4.70;;;18.70;94.40;;;;;;5077768;28;20211;-83
2022/06/22 00:04:14;;;;;;;8.63;5.20;;;18.60;94.90;;;;;;5072776;28;20205;-83
2022/06/22 00:06:45;;;;;;;6.47;4.68;;;18.60;95.00;;;;;;5083756;28;20644;-84
2022/06/22 00:09:30;;;;;;;5.47;4.35;;;18.50;94.20;;;;;;5072720;28;20197;-83
2022/06/22 00:11:59;;;;;;;4.95;4.40;;;18.60;93.60;;;;;;5079893;28;20678;-83
2022/06/22 00:14:29;;;;;;;7.05;4.68;;;18.60;93.70;;;;;;5075215;28;20208;-85
2022/06/22 00:17:02;;;;;;;4.88;4.25;;;18.60;94.00;;;;;;5082310;28;20192;-84
2022/06/22 00:19:44;;;;;;;6.78;4.70;;;18.70;94.00;;;;;;5086333;28;20204;-83
2022/06/22 00:22:21;;;;;;;6.55;4.25;;;18.70;93.90;;;;;;5075635;28;20208;-83
2022/06/22 00:24:57;;;;;;;5.45;4.38;;;18.80;94.40;;;;;;5078173;28;20203;-83
2022/06/22 00:27:30;;;;;;;5.03;4.53;;;18.80;95.10;;;;;;5074157;28;20217;-83
2022/06/22 00:30:22;;;;;;;7.22;4.78;;;18.80;95.20;;;;;;5071110;28;20201;-83
2022/06/22 00:33:01;;;;;;;6.22;4.60;;;18.80;95.90;;;;;;5081619;28;20283;-87
2022/06/22 00:35:56;;;;;;;6.65;4.72;;;18.80;95.50;;;;;;5070267;28;20197;-87
2022/06/22 00:38:33;;;;;;;6.60;4.72;;;18.70;95.80;;;;;;5073653;28;20201;-86
2022/06/22 00:41:04;;;;;;;7.13;5.32;;;18.60;96.10;;;;;;5068261;28;20222;-86
2022/06/22 00:43:35;;;;;;;6.05;4.75;;;18.60;95.60;;;;;;5075121;28;20640;-87
2022/06/22 00:46:14;;;;;;;6.63;4.50;;;18.40;96.40;;;;;;5073179;28;20197;-86
2022/06/22 00:48:41;;;;;;;6.15;4.97;;;18.30;97.40;;;;;;5071731;28;20239;-86
2022/06/22 00:51:13;;;;;;;5.97;5.07;;;18.30;96.80;;;;;;5072469;28;20201;-86
2022/06/22 00:53:52;;;;;;;6.75;5.45;;;18.30;96.90;;;;;;5075322;28;20200;-86
2022/06/22 00:56:29;;;;;;;7.28;5.35;;;18.30;97.30;;;;;;5058661;28;20194;-86
2022/06/22 00:59:11;;;;;;;6.35;5.70;;;18.30;97.10;;;;;;5073238;28;20193;-87
2022/06/22 01:01:46;;;;;;;8.07;5.57;;;18.20;97.00;;;;;;5072069;28;20201;-86
2022/06/22 01:04:18;;;;;;;6.40;5.60;;;18.20;96.90;;;;;;5072570;28;20204;-86
2022/06/22 01:06:54;;;;;;;7.22;5.15;;;18.40;97.10;;;;;;5075890;28;20197;-86
2022/06/22 01:09:28;;;;;;;6.47;5.53;;;18.30;97.10;;;;;;5072107;28;20197;-87
2022/06/22 01:12:17;;;;;;;5.60;5.00;;;18.20;97.20;;;;;;5081135;28;20231;-86
2022/06/22 01:15:16;;;;;;;6.90;5.55;;;18.30;96.80;;;;;;5078130;28;20194;-86
2022/06/22 01:17:57;;;;;;;7.32;5.57;;;18.40;97.10;;;;;;5063985;28;20205;-86
2022/06/22 01:20:34;;;;;;;9.57;5.55;;;18.40;97.00;;;;;;5074001;28;20197;-87
2022/06/22 01:23:36;;;;;;;9.70;5.75;;;18.40;97.30;;;;;;5081146;28;20668;-87
2022/06/22 01:26:29;;;;;;;8.48;5.20;;;18.20;97.10;;;;;;5057178;28;20664;-87
2022/06/22 01:29:17;;;;;;;5.90;5.15;;;18.20;97.60;;;;;;5066106;28;20274;-86
2022/06/22 01:31:56;;;;;;;9.18;5.30;;;18.30;97.70;;;;;;5069281;28;20204;-86
2022/06/22 01:34:29;;;;;;;8.45;5.57;;;18.20;97.70;;;;;;5070419;28;20196;-87
2022/06/22 01:37:01;;;;;;;5.88;5.05;;;18.10;97.60;;;;;;5071153;28;20201;-86
2022/06/22 01:39:28;;;;;;;7.05;4.95;;;18.20;97.70;;;;;;5067812;28;20205;-87
2022/06/22 01:42:17;;;;;;;6.00;5.40;;;18.10;97.70;;;;;;5066026;28;20635;-87
2022/06/22 01:45:01;;;;;;;9.75;5.30;;;18.10;97.90;;;;;;5073767;28;20220;-86
2022/06/22 01:47:41;;;;;;;6.05;5.43;;;18.10;97.60;;;;;;5073927;28;20560;-86
2022/06/22 01:50:16;;;;;;;7.13;5.25;;;18.00;97.60;;;;;;5069335;28;20197;-87
2022/06/22 01:53:05;;;;;;;6.95;5.10;;;18.10;97.60;;;;;;5061533;28;20213;-87
2022/06/22 01:55:39;;;;;;;5.97;4.95;;;18.10;97.90;;;;;;5068685;28;20224;-87
2022/06/22 01:58:26;;;;;;;7.88;4.93;;;18.10;98.30;;;;;;5066174;28;20207;-87
2022/06/22 02:01:21;;;;;;;7.57;5.32;;;18.10;98.50;;;;;;5064406;28;20215;-87
2022/06/22 02:04:00;;;;;;;6.53;4.90;;;18.10;98.20;;;;;;5070050;28;20201;-87
2022/06/22 02:09:24;;;;;;;6.25;5.15;;;18.00;98.60;;;;;;5079054;28;20192;-86
2022/06/22 02:12:20;;;;;;;6.00;5.40;;;18.00;98.50;;;;;;5074283;28;20560;-87
2022/06/22 02:14:52;;;;;;;7.75;5.35;;;18.00;98.60;;;;;;5072127;28;20262;-86
2022/06/22 02:17:36;;;;;;;6.60;5.20;;;18.00;98.40;;;;;;5077588;28;20208;-86
2022/06/22 02:20:36;;;;;;;6.03;5.40;;;18.00;98.30;;;;;;5061860;28;20731;-87
2022/06/22 02:23:15;;;;;;;8.13;5.70;;;18.00;98.30;;;;;;5007818;28;20199;-87
2022/06/22 02:25:57;;;;;;;7.22;5.32;;;18.00;98.40;;;;;;5069645;28;20531;-86
2022/06/22 02:28:26;;;;;;;5.63;5.13;;;18.00;98.60;;;;;;5081879;28;20189;-86
2022/06/22 02:30:53;;;;;;;9.43;5.32;;;18.00;98.30;;;;;;5071886;28;20576;-86
2022/06/22 02:33:28;;;;;;;6.05;5.07;;;18.00;98.30;;;;;;5079668;28;20656;-87
2022/06/22 02:36:02;;;;;;;6.38;5.38;;;18.00;98.50;;;;;;5068691;28;20212;-87
2022/06/22 02:38:38;;;;;;;6.03;5.43;;;18.00;98.60;;;;;;5071922;28;20835;-87
2022/06/22 02:46:38;;;;;;;10.27;5.97;;;18.00;99.00;;;;;;5068863;28;20300;-86
2022/06/22 02:49:26;;;;;;;7.35;5.25;;;18.00;98.90;;;;;;5068828;28;20185;-86
2022/06/22 02:52:15;;;;;;;9.00;5.35;;;18.10;98.70;;;;;;5086747;28;20566;-86
2022/06/22 02:54:48;;;;;;;5.95;5.35;;;18.00;98.70;;;;;;5068151;28;20209;-87
2022/06/22 02:57:23;;;;;;;6.97;6.00;;;18.00;98.70;;;;;;5075034;28;20195;-86
2022/06/22 02:59:51;;;;;;;7.35;5.70;;;17.90;99.00;;;;;;5072478;28;20185;-86
2022/06/22 03:02:21;;;;;;;7.53;5.50;;;17.90;99.00;;;;;;5078107;28;20640;-86
2022/06/22 03:04:52;;;;;;;9.02;5.90;;;18.00;98.80;;;;;;5080612;28;20193;-86
2022/06/22 03:07:22;;;;;;;8.43;5.35;;;17.90;98.70;;;;;;5085045;28;20203;-86
2022/06/22 03:09:50;;;;;;;8.32;5.65;;;17.90;99.00;;;;;;5077488;28;20197;-86
2022/06/22 03:12:33;;;;;;;7.93;5.60;;;17.80;99.10;;;;;;5071756;28;20672;-87
2022/06/22 03:15:20;;;;;;;6.85;5.70;;;17.90;99.10;;;;;;5074879;28;20746;-86
2022/06/22 03:17:50;;;;;;;9.88;4.97;;;17.90;99.10;;;;;;5069585;28;20205;-86
2022/06/22 03:20:39;;;;;;;9.45;5.30;;;17.80;99.10;;;;;;5077702;28;20198;-86
2022/06/22 03:23:24;;;;;;;7.15;5.10;;;17.90;99.00;;;;;;5075928;28;20280;-87
2022/06/22 03:25:57;;;;;;;6.15;4.53;;;17.90;99.10;;;;;;5068474;28;20219;-86
2022/06/22 03:28:31;;;;;;;6.10;4.47;;;17.80;99.10;;;;;;5074031;28;20211;-86
2022/06/22 03:31:22;;;;;;;6.93;4.40;;;17.90;99.30;;;;;;5070499;28;20205;-86
2022/06/22 03:34:27;;;;;;;6.40;4.32;;;17.90;98.80;;;;;;5065316;28;20248;-86
2022/06/22 03:37:15;;;;;;;5.90;4.50;;;17.90;98.80;;;;;;5075249;28;20663;-86
2022/06/22 03:39:50;;;;;;;4.20;3.75;;;17.90;99.00;;;;;;5069166;28;20224;-87
2022/06/22 03:42:32;;;;;;;5.53;4.03;;;17.90;99.10;;;;;;5063085;28;20213;-87
2022/06/22 03:45:04;;;;;;;7.97;4.20;;;18.00;98.70;;;;;;5066435;28;20200;-86
2022/06/22 03:47:37;;;;;;;5.43;4.00;;;18.00;98.50;;;;;;5068649;28;20206;-86
2022/06/22 03:50:30;;;;;;;6.72;3.67;;;17.90;98.70;;;;;;5074054;28;20192;-87
2022/06/22 03:53:06;;;;;;;6.53;3.83;;;18.00;98.60;;;;;;5069166;28;20189;-87
2022/06/22 03:55:48;;;;;;;4.28;3.72;;;18.10;98.10;;;;;;5070355;28;20201;-86
2022/06/22 03:58:16;;;;;;;5.53;3.92;;;18.30;97.70;;;;;;5076041;28;20200;-87
2022/06/22 04:00:50;;;;;;;5.72;3.80;;;18.50;97.70;;;;;;5071051;28;20671;-87
2022/06/22 04:04:08;;;;;;;6.50;4.22;;;18.50;97.70;;;;;;5068531;28;20279;-87
2022/06/22 04:06:40;;;;;;;7.50;3.63;;;18.60;96.80;;;;;;5068035;28;20193;-87
2022/06/22 04:09:18;;;;;;;4.40;3.53;;;18.50;96.80;;;;;;5070142;28;20205;-86
2022/06/22 04:11:53;;;;;;;4.68;3.65;;;18.50;96.80;;;;;;5072267;28;20239;-86
2022/06/22 04:14:26;;;;;;;4.75;3.58;;;18.40;97.20;;;;;;5069378;28;20217;-87
2022/06/22 04:17:00;;;;;;;7.22;3.83;;;18.40;97.40;;;;;;5073643;28;20197;-87
2022/06/22 04:19:52;;;;;;;7.30;3.72;;;18.40;97.70;;;;;;5083177;28;20551;-87
2022/06/22 04:22:23;;;;;;;4.78;3.22;;;18.70;97.10;;;;;;5057566;28;20202;-87
2022/06/22 04:24:58;;;;;;;6.07;3.88;;;18.80;97.00;;;;;;5060541;28;20216;-83
2022/06/22 04:27:28;;;;;;;6.85;3.50;;;19.00;96.70;;;;;;5059429;28;20228;-84
2022/06/22 04:30:06;;;;;;;5.90;3.70;;;18.90;96.30;;;;;;5071986;28;20203;-84
2022/06/22 04:32:49;;;;;;;5.22;3.80;;;18.90;96.90;;;;;;5059902;28;20200;-84
2022/06/22 04:35:30;;;;;;;7.00;3.88;;;19.00;96.40;;;;;;5075093;28;20221;-84
2022/06/22 04:38:01;;;;;;;6.20;3.80;;;19.10;96.40;;;;;;5082059;28;20200;-84
2022/06/22 04:40:48;;;;;;;7.38;3.40;;;19.40;96.00;;;;;;5080289;28;20649;-84
2022/06/22 04:43:15;;;;;;;7.90;3.72;;;19.60;95.10;;;;;;5075668;28;20276;-86
2022/06/22 04:46:01;;;;;;;6.78;3.40;;;19.60;94.70;;;;;;5083436;28;20255;-84
2022/06/22 04:48:57;;;;;;;7.15;4.13;;;19.70;94.00;;;;;;5078114;28;20194;-85
2022/06/22 04:51:32;;;;;;;6.63;3.53;;;19.90;93.60;;;;;;5074363;28;20201;-87
2022/06/22 04:54:14;;;;;;;10.07;3.70;;;20.10;92.70;;;;;;5059002;28;20285;-87
2022/06/22 04:56:47;;;;;;;10.10;3.65;;;20.10;92.70;;;;;;5062061;28;20203;-87
2022/06/22 04:59:15;;;;;;;4.53;3.25;;;20.20;92.70;;;;;;5073694;28;20194;-86
2022/06/22 05:01:49;;;;;;;7.30;3.35;;;20.40;91.60;;;;;;5084859;28;20209;-89
2022/06/22 05:04:23;;;;;;;6.93;3.90;;;20.50;91.40;;;;;;5078025;28;20194;-88
2022/06/22 05:07:07;;;;;;;6.57;3.55;;;20.50;91.40;;;;;;5084278;28;20664;-86
2022/06/22 05:09:43;;;;;;;6.13;3.47;;;20.40;91.20;;;;;;5072325;28;20203;-88
2022/06/22 05:12:17;;;;;;;9.05;3.78;;;20.50;91.90;;;;;;5072379;28;20200;-89
2022/06/22 05:14:46;;;;;;;6.38;3.50;;;20.50;91.20;;;;;;5064526;28;20225;-90
2022/06/22 05:17:20;;;;;;;7.30;3.72;;;20.40;90.90;;;;;;5066870;28;20214;-89
2022/06/22 05:19:53;;;;;;;7.55;3.88;;;20.50;91.50;;;;;;5057006;28;20214;-88
2022/06/22 05:22:20;;;;;;;8.20;3.95;;;20.70;91.00;;;;;;5089153;28;20281;-89
2022/06/22 05:25:05;;;;;;;7.88;3.53;;;20.70;90.80;;;;;;5075501;28;20591;-89
2022/06/22 05:27:55;;;;;;;8.02;3.63;;;20.70;90.60;;;;;;5073214;28;20214;-88
2022/06/22 05:30:46;;;;;;;12.38;3.78;;;20.80;90.40;;;;;;5066448;28;20201;-86
2022/06/22 05:33:23;;;;;;;5.25;3.50;;;20.90;90.30;;;;;;5070761;28;20201;-87
2022/06/22 05:36:03;;;;;;;8.05;3.70;;;20.90;90.20;;;;;;5067754;28;20197;-87
2022/06/22 05:38:35;;;;;;;6.25;3.70;;;20.90;90.40;;;;;;5066510;28;20237;-87
2022/06/22 05:41:04;;;;;;;7.97;3.53;;;20.80;89.80;;;;;;5054181;28;20224;-87
2022/06/22 05:43:36;;;;;;;8.20;3.85;;;20.80;90.20;;;;;;5087411;28;20201;-87
2022/06/22 05:46:11;;;;;;;11.13;3.72;;;20.80;90.40;;;;;;5096437;28;20196;-87
2022/06/22 05:48:44;;;;;;;7.60;3.85;;;20.80;90.40;;;;;;5083950;28;20211;-87
2022/06/22 05:51:18;;;;;;;9.50;3.88;;;20.70;90.10;;;;;;5082360;28;20197;-87
2022/06/22 05:54:11;;;;;;;8.02;3.72;;;20.60;90.40;;;;;;5081764;28;20687;-87
2022/06/22 05:56:55;;;;;;;7.15;3.80;;;20.90;90.00;;;;;;5079827;28;20207;-86
2022/06/22 05:59:45;;;;;;;6.78;3.60;;;21.00;88.00;;;;;;5077943;28;20198;-87
2022/06/22 06:02:22;;;;;;;8.35;4.00;;;21.20;87.00;;;;;;5087116;28;20271;-86
2022/06/22 06:04:55;;;;;;;8.73;3.75;;;21.30;84.20;;;;;;5080961;28;20192;-87
2022/06/22 06:07:38;;;;;;;8.75;4.10;;;21.40;82.60;;;;;;5078866;28;20220;-87
2022/06/22 06:10:18;;;;;;;14.38;7.35;;;21.60;82.00;;;;;;5069295;28;20192;-87
2022/06/22 06:12:57;;;;;;;9.07;4.00;;;21.70;81.70;;;;;;5080295;28;20192;-87
2022/06/22 06:15:26;;;;;;;9.45;4.10;;;21.90;77.50;;;;;;5070308;28;20221;-87
2022/06/22 06:17:59;;;;;;;9.00;4.10;;;22.00;77.70;;;;;;5081414;28;20198;-87
2022/06/22 06:20:30;;;;;;;11.65;4.22;;;22.20;77.00;;;;;;5078869;28;20261;-87
2022/06/22 06:23:01;;;;;;;7.60;4.18;;;22.40;77.60;;;;;;5062533;28;20276;-87
2022/06/22 06:28:33;;;;;;;6.57;3.60;;;22.80;76.60;;;;;;5077151;28;20221;-84
2022/06/22 06:31:07;;;;;;;13.85;3.97;;;22.80;77.30;;;;;;5054708;28;20205;-85
2022/06/22 06:33:44;;;;;;;9.77;4.25;;;22.80;75.80;;;;;;5075765;28;20201;-85
2022/06/22 06:36:18;;;;;;;13.68;3.90;;;23.00;72.90;;;;;;5077107;28;20242;-85
2022/06/22 06:38:52;;;;;;;10.73;4.28;;;22.90;71.60;;;;;;5079720;28;20194;-85
2022/06/22 06:41:25;;;;;;;9.80;4.07;;;22.80;75.80;;;;;;5077965;28;20235;-85
2022/06/22 06:43:54;;;;;;;12.35;4.13;;;22.70;73.20;;;;;;5074968;28;20676;-85
2022/06/22 06:46:26;;;;;;;12.52;4.75;;;22.50;74.90;;;;;;5080275;28;20307;-87
2022/06/22 06:49:05;;;;;;;11.27;4.22;;;22.40;78.10;;;;;;5082786;28;20197;-85
2022/06/22 06:51:51;;;;;;;8.70;3.67;;;22.40;77.30;;;;;;5082252;28;20196;-85
2022/06/22 06:54:31;;;;;;;10.02;3.75;;;22.20;77.80;;;;;;5082032;28;20683;-84
2022/06/22 06:57:07;;;;;;;7.60;3.65;;;22.00;78.60;;;;;;5083613;28;20202;-87
2022/06/22 06:59:40;;;;;;;8.13;3.72;;;21.80;80.80;;;;;;5071334;28;20220;-88
2022/06/22 07:02:34;;;;;;;11.48;4.20;;;21.80;82.10;;;;;;5075079;28;20201;-87
2022/06/22 07:05:18;;;;;;;11.65;5.40;;;21.70;83.20;;;;;;5075927;28;20656;-87
2022/06/22 07:07:50;;;;;;;15.63;4.45;;;21.50;85.20;;;;;;5078023;28;20248;-85
2022/06/22 07:10:24;;;;;;;16.35;3.95;;;21.20;87.00;;;;;;5083342;28;20264;-85
2022/06/22 07:13:00;;;;;;;13.25;4.07;;;21.10;89.00;;;;;;5081172;28;20196;-85
2022/06/22 07:15:53;;;;;;;8.75;3.83;;;21.30;89.80;;;;;;5076428;28;20209;-85
2022/06/22 07:18:26;;;;;;;10.10;4.22;;;21.30;89.10;;;;;;5083879;28;20201;-85
2022/06/22 07:20:57;;;;;;;11.85;4.15;;;21.40;88.50;;;;;;5092413;28;20663;-84
2022/06/22 07:23:30;;;;;;;11.48;4.53;;;21.40;88.90;;;;;;5088541;28;20660;-85
2022/06/22 07:26:01;;;;;;;9.45;4.05;;;21.50;87.20;;;;;;5076634;28;20211;-84
2022/06/22 07:28:33;;;;;;;10.77;4.50;;;21.60;87.60;;;;;;5078042;28;20706;-84
2022/06/22 07:31:27;;;;;;;18.00;4.60;;;21.80;85.80;;;;;;5077200;28;20200;-85
2022/06/22 07:34:01;;;;;;;11.60;4.35;;;22.00;84.20;;;;;;5076582;28;20201;-84
2022/06/22 07:36:34;;;;;;;12.07;4.20;;;22.00;85.40;;;;;;5086225;28;20192;-85
2022/06/22 07:39:09;;;;;;;11.23;3.80;;;22.20;85.10;;;;;;5080918;28;20204;-85
2022/06/22 07:41:44;;;;;;;11.40;4.10;;;22.40;78.60;;;;;;5078502;28;20217;-85
2022/06/22 07:44:16;;;;;;;14.00;4.00;;;22.50;76.60;;;;;;5081655;28;20212;-85
2022/06/22 07:46:48;;;;;;;7.65;3.47;;;22.50;77.20;;;;;;5080180;28;20205;-85
2022/06/22 07:49:27;;;;;;;10.27;3.88;;;22.50;77.70;;;;;;5079765;28;20198;-85
2022/06/22 07:51:56;;;;;;;12.05;4.05;;;22.50;75.50;;;;;;5095478;28;20188;-85
2022/06/22 07:54:39;;;;;;;15.40;4.15;;;22.70;72.00;;;;;;5089294;28;20220;-85
2022/06/22 07:57:12;;;;;;;12.77;5.10;;;22.70;70.30;;;;;;5079636;28;20557;-85
2022/06/22 08:00:07;;;;;;;14.30;4.30;;;22.80;70.60;;;;;;5072412;28;20210;-85
2022/06/22 08:02:54;;;;;;;9.80;4.10;;;23.00;70.40;;;;;;5071274;28;20863;-85
2022/06/22 08:05:26;;;;;;;9.95;3.88;;;23.10;69.10;;;;;;5074623;28;20208;-85
2022/06/22 08:08:02;;;;;;;17.10;4.40;;;23.20;70.40;;;;;;5076458;28;20201;-85
2022/06/22 08:10:51;;;;;;;17.90;4.28;;;23.30;66.00;;;;;;5070692;28;20209;-85
2022/06/22 08:13:22;;;;;;;12.32;4.18;;;23.40;66.40;;;;;;5078312;28;20204;-85
2022/06/22 08:15:54;;;;;;;12.10;4.15;;;23.50;67.80;;;;;;5078547;28;20282;-85
2022/06/22 08:18:39;;;;;;;12.32;4.90;;;23.60;63.60;;;;;;5082425;28;20197;-85
2022/06/22 08:21:19;;;;;;;9.82;4.10;;;23.40;61.50;;;;;;5069530;28;20212;-85
2022/06/22 08:23:52;;;;;;;9.70;4.30;;;23.60;59.20;;;;;;5063130;28;20200;-85
2022/06/22 08:26:25;;;;;;;12.50;4.32;;;23.70;62.20;;;;;;5084989;28;20201;-83
2022/06/22 08:28:53;;;;;;;14.23;4.55;;;24.00;59.50;;;;;;5072835;28;20193;-83
2022/06/22 08:31:20;;;;;;;13.35;4.60;;;24.00;59.50;;;;;;5079142;28;20208;-83
2022/06/22 08:33:52;;;;;;;14.73;4.10;;;23.80;59.40;;;;;;5079172;28;20695;-83
2022/06/22 08:36:32;;;;;;;14.55;4.40;;;23.70;59.30;;;;;;5090530;28;20220;-83
2022/06/22 08:39:17;;;;;;;10.07;4.18;;;23.70;60.70;;;;;;5079402;28;20204;-83
2022/06/22 08:41:56;;;;;;;9.48;4.28;;;23.70;59.20;;;;;;5082135;28;20225;-83
2022/06/22 08:44:36;;;;;;;11.18;3.80;;;23.80;60.00;;;;;;5070881;28;20205;-83
2022/06/22 08:47:35;;;;;;;9.98;4.03;;;23.90;59.50;;;;;;5088679;28;20192;-83
2022/06/22 08:50:39;;;;;;;11.23;4.07;;;23.90;59.40;;;;;;5013124;28;20200;-85
2022/06/22 08:53:34;;;;;;;10.57;4.53;;;23.80;59.30;;;;;;5016883;28;20198;-85
2022/06/22 08:56:27;;;;;;;17.02;4.45;;;23.60;59.20;;;;;;5001365;28;20227;-85
2022/06/22 08:59:20;;;;;;;13.60;4.85;;;23.50;59.10;;;;;;5012506;28;20200;-85
2022/06/22 09:02:02;;;;;;;15.65;4.63;;;23.40;59.00;;;;;;5017381;28;20976;-85
2022/06/22 09:04:52;;;;;;;13.00;4.30;;;23.30;62.70;;;;;;5012313;28;20199;-85
2022/06/22 09:07:52;;;;;;;11.73;4.10;;;23.20;63.70;;;;;;4952233;28;20209;-86
2022/06/22 09:11:06;;;;;;;11.23;4.68;;;23.40;63.20;;;;;;4965978;28;21062;-85
2022/06/22 09:13:56;;;;;;;9.45;4.15;;;23.70;64.70;;;;;;4908426;28;20217;-86
2022/06/22 09:16:36;;;;;;;16.20;5.00;;;24.00;63.60;;;;;;4960810;28;20281;-84
2022/06/22 09:19:25;;;;;;;13.85;4.05;;;24.50;54.10;;;;;;4949188;28;20209;-84
2022/06/22 09:22:15;;;;;;;11.25;4.30;;;24.70;52.60;;;;;;4951962;28;20201;-83
2022/06/22 09:24:59;;;;;;;13.65;4.60;;;25.10;50.70;;;;;;4962928;28;20212;-84
2022/06/22 09:27:42;;;;;;;12.75;4.28;;;25.20;49.20;;;;;;4990684;28;20206;-83
2022/06/22 09:30:29;;;;;;;16.50;5.38;;;25.10;52.00;;;;;;4998529;28;20211;-82
2022/06/22 09:33:20;;;;;;;13.20;5.00;;;24.90;52.00;;;;;;5011888;28;20302;-84
2022/06/22 09:36:17;;;;;;;11.95;4.65;;;25.00;51.80;;;;;;5007532;28;20223;-83
2022/06/22 09:39:21;;;;;;;10.85;4.63;;;24.90;50.80;;;;;;5000263;28;20204;-84
2022/06/22 09:42:05;;;;;;;12.52;4.45;;;24.90;52.90;;;;;;5015629;28;20223;-84
2022/06/22 09:45:07;;;;;;;12.18;4.75;;;24.90;51.70;;;;;;5037871;28;20725;-84
2022/06/22 09:48:11;;;;;;;14.57;4.65;;;25.00;50.90;;;;;;5059961;28;20568;-84
2022/06/22 09:51:03;;;;;;;10.95;4.50;;;25.00;51.40;;;;;;5041464;28;20646;-84
2022/06/22 09:53:57;;;;;;;11.73;5.22;;;25.10;52.40;;;;;;5074150;28;20201;-84
2022/06/22 09:56:39;;;;;;;11.70;4.65;;;25.30;50.00;;;;;;5075492;28;20228;-84
2022/06/22 09:59:52;;;;;;;16.20;4.78;;;25.10;52.40;;;;;;5077597;28;20665;-84
2022/06/22 10:02:48;;;;;;;11.55;4.70;;;24.70;56.00;;;;;;4993991;28;20266;-84
2022/06/22 10:06:07;;;;;;;12.45;5.10;;;24.50;57.40;;;;;;4987276;28;20208;-82
2022/06/22 10:08:50;;;;;;;10.75;4.80;;;24.20;56.90;;;;;;4992995;28;20208;-83
2022/06/22 10:12:02;;;;;;;9.18;4.72;;;24.40;55.80;;;;;;4992609;28;20207;-83
2022/06/22 10:14:50;;;;;;;11.32;4.97;;;24.30;55.60;;;;;;5002225;28;20268;-83
2022/06/22 10:17:33;;;;;;;11.80;4.85;;;24.80;53.80;;;;;;5009523;28;20209;-84
2022/06/22 10:20:17;;;;;;;12.02;5.30;;;25.80;52.70;;;;;;5011606;28;20215;-85
2022/06/22 10:22:59;;;;;;;10.07;5.05;;;26.10;42.00;;;;;;5029109;28;20209;-86
2022/06/22 10:25:58;;;;;;;14.10;5.22;;;26.10;43.80;;;;;;4968199;28;20200;-85
2022/06/22 10:28:49;;;;;;;10.10;4.63;;;26.10;42.50;;;;;;5002471;28;20241;-85
2022/06/22 10:31:41;;;;;;;15.52;5.70;;;26.10;44.00;;;;;;4978146;28;20200;-85
2022/06/22 10:34:39;;;;;;;16.95;4.78;;;26.10;44.40;;;;;;5032166;28;20212;-85
2022/06/22 10:37:34;;;;;;;13.88;4.80;;;26.40;44.80;;;;;;5028842;28;20693;-85
2022/06/22 10:47:17;;;;;;;11.60;5.18;;;26.40;42.30;;;;;;4937042;29;20243;-85
2022/06/22 10:50:10;;;;;;;12.05;5.20;;;26.30;42.50;;;;;;4936953;29;20202;-86
2022/06/22 10:52:59;;;;;;;16.90;5.82;;;26.40;42.40;;;;;;4927010;29;20210;-85
2022/06/22 10:55:47;;;;;;;10.60;5.38;;;26.30;43.60;;;;;;4939040;29;20232;-85
2022/06/22 10:58:56;;;;;;;11.65;5.65;;;26.20;44.00;;;;;;4938517;29;20206;-85
2022/06/22 11:01:40;;;;;;;14.77;5.70;;;26.00;44.90;;;;;;4929342;29;20201;-83
2022/06/22 11:04:44;;;;;;;13.20;5.07;;;25.70;48.80;;;;;;4940710;29;20224;-83
2022/06/22 11:07:48;;;;;;;14.80;5.53;;;25.50;50.40;;;;;;4941133;29;20288;-83
2022/06/22 11:10:40;;;;;;;12.75;5.55;;;25.30;51.60;;;;;;4956498;28;20201;-83
2022/06/22 11:13:47;;;;;;;11.20;5.25;;;24.80;55.60;;;;;;4953843;28;20197;-83
2022/06/22 11:16:47;;;;;;;13.02;5.20;;;24.60;58.80;;;;;;4969968;28;20231;-83
2022/06/22 11:19:52;;;;;;;13.43;6.13;;;24.40;59.90;;;;;;5054975;28;20598;-83
2022/06/22 11:22:35;;;;;;;12.27;5.40;;;24.20;62.60;;;;;;5070952;28;20216;-85
2022/06/22 11:31:53;;;;;;;12.88;6.00;;;23.90;69.10;;;;;;5077568;28;20261;-85
2022/06/22 11:34:45;;;;;;;12.98;5.85;;;23.70;69.70;;;;;;5083432;28;20250;-85
2022/06/22 11:37:26;;;;;;;11.73;5.78;;;23.60;69.20;;;;;;5086709;28;20250;-85
2022/06/22 11:40:19;;;;;;;11.77;5.72;;;23.50;70.60;;;;;;5080852;28;20223;-85
2022/06/22 11:43:03;;;;;;;10.30;5.80;;;23.70;69.30;;;;;;5079578;28;20282;-85
2022/06/22 11:45:54;;;;;;;10.50;5.90;;;23.70;68.60;;;;;;5064992;28;20220;-85
2022/06/22 11:48:57;;;;;;;11.73;5.97;;;23.90;68.40;;;;;;5076085;28;20239;-85
2022/06/22 11:51:46;;;;;;;15.55;6.50;;;24.00;67.00;;;;;;5077153;28;20203;-85
2022/06/22 11:54:41;;;;;;;9.80;5.93;;;24.20;65.70;;;;;;5067732;28;20200;-85
2022/06/22 11:57:41;;;;;;;8.50;5.65;;;24.20;66.60;;;;;;5079100;28;20209;-83
2022/06/22 12:00:16;;;;;;;13.82;5.85;;;24.40;64.90;;;;;;5073621;28;20198;-83
2022/06/22 12:02:59;;;;;;;11.10;6.07;;;24.60;61.70;;;;;;5074558;28;20289;-83
2022/06/22 12:05:45;;;;;;;14.43;6.40;;;24.70;60.30;;;;;;5076839;28;20193;-83
2022/06/22 12:08:27;;;;;;;13.95;6.20;;;24.80;60.30;;;;;;5074973;28;20533;-83
2022/06/22 12:11:04;;;;;;;18.60;7.22;;;24.90;60.40;;;;;;5073206;28;20538;-82
2022/06/22 12:16:47;;;;;;;13.60;6.05;;;25.30;56.50;;;;;;5070288;28;20228;-83
2022/06/22 12:19:34;;;;;;;12.13;6.32;;;25.60;55.10;;;;;;5071778;28;20733;-85
2022/06/22 12:22:18;;;;;;;11.43;5.65;;;25.90;51.90;;;;;;5069924;28;20238;-86
2022/06/22 12:25:23;;;;;;;11.57;5.43;;;25.80;49.50;;;;;;5066482;28;20201;-85
2022/06/22 12:28:14;;;;;;;12.45;5.15;;;25.90;48.90;;;;;;5058121;28;20201;-85
2022/06/22 12:30:53;;;;;;;13.45;5.15;;;25.70;46.60;;;;;;5084647;28;20193;-85
2022/06/22 12:33:33;;;;;;;15.07;5.15;;;25.50;46.40;;;;;;5081453;28;20261;-85
2022/06/22 12:36:07;;;;;;;12.77;4.97;;;25.50;46.10;;;;;;5067303;28;20221;-83
2022/06/22 12:38:43;;;;;;;9.38;4.47;;;25.50;47.60;;;;;;5076055;28;20207;-83
2022/06/22 12:41:32;;;;;;;12.65;4.95;;;25.40;45.60;;;;;;5081716;28;20609;-83
2022/06/22 12:44:34;;;;;;;11.52;4.88;;;25.50;44.80;;;;;;5076882;28;20194;-83
2022/06/22 12:47:25;;;;;;;11.00;4.97;;;25.50;44.70;;;;;;5007621;28;20203;-83
2022/06/22 12:50:09;;;;;;;13.75;4.78;;;25.50;44.10;;;;;;5015528;28;20710;-85
2022/06/22 12:52:51;;;;;;;13.98;5.00;;;25.70;42.10;;;;;;5017116;28;20195;-86
2022/06/22 12:55:26;;;;;;;15.50;5.07;;;26.10;41.50;;;;;;5012881;28;20234;-84
2022/06/22 12:58:01;;;;;;;9.38;4.75;;;26.30;38.70;;;;;;5021226;28;21032;-85
2022/06/22 13:00:29;;;;;;;13.95;4.10;;;26.30;38.20;;;;;;5009701;28;20195;-85
2022/06/22 13:02:58;;;;;;;12.45;5.15;;;26.00;41.30;;;;;;5007963;28;20211;-85
2022/06/22 13:05:34;;;;;;;15.38;5.60;;;26.10;41.20;;;;;;5015144;28;20206;-85
2022/06/22 13:08:05;;;;;;;13.88;5.28;;;26.20;39.60;;;;;;5013610;28;20191;-85
2022/06/22 13:10:37;;;;;;;17.75;5.13;;;25.90;40.10;;;;;;5019866;28;20195;-86
2022/06/22 13:13:10;;;;;;;14.52;4.88;;;25.90;39.30;;;;;;5017884;28;20282;-85
2022/06/22 13:15:52;;;;;;;19.70;5.07;;;25.90;38.50;;;;;;5032160;28;20240;-85
2022/06/22 13:18:27;;;;;;;13.55;4.00;;;25.80;36.70;;;;;;5029992;28;20264;-85
2022/06/22 13:21:05;;;;;;;13.50;4.05;;;25.80;36.70;;;;;;5029150;28;20198;-84
2022/06/22 13:23:52;;;;;;;16.60;4.82;;;25.70;34.80;;;;;;5059579;28;20201;-84
2022/06/22 13:26:42;;;;;;;15.82;4.43;;;25.50;35.50;;;;;;5064597;28;20198;-83
2022/06/22 13:29:33;;;;;;;15.18;4.03;;;25.30;36.40;;;;;;5068412;28;20201;-84
2022/06/22 13:32:06;;;;;;;17.67;3.88;;;25.30;36.40;;;;;;5077731;28;20208;-83
2022/06/22 13:34:40;;;;;;;16.75;3.70;;;25.50;34.60;;;;;;5075869;28;20201;-84
2022/06/22 13:37:23;;;;;;;17.05;4.30;;;25.50;36.10;;;;;;5076688;28;20206;-83
2022/06/22 13:40:03;;;;;;;16.83;4.03;;;25.90;33.80;;;;;;5082275;28;20721;-85
2022/06/22 13:42:59;;;;;;;11.70;3.95;;;26.00;34.30;;;;;;5075475;28;20232;-86
2022/06/22 13:45:40;;;;;;;13.30;4.32;;;26.10;34.10;;;;;;5074286;28;20213;-84
2022/06/22 13:48:50;;;;;;;14.70;4.60;;;25.90;34.40;;;;;;5077101;28;20211;-85
2022/06/22 13:51:46;;;;;;;15.38;4.10;;;25.70;36.70;;;;;;5075226;28;20284;-84
2022/06/22 13:54:43;;;;;;;15.80;4.60;;;25.50;36.00;;;;;;5073435;28;20204;-84
2022/06/22 13:57:19;;;;;;;16.88;4.32;;;25.90;35.90;;;;;;5076624;28;20230;-84
2022/06/22 13:59:55;;;;;;;15.45;3.30;;;25.90;34.60;;;;;;5085130;28;20212;-84
2022/06/22 14:02:56;;;;;;;13.90;4.20;;;25.50;33.50;;;;;;5077085;28;21876;-85
2022/06/22 14:05:39;;;;;;;20.48;4.00;;;25.40;34.60;;;;;;5073811;28;20197;-81
2022/06/22 14:08:36;;;;;;;12.20;3.80;;;25.40;34.60;;;;;;5072336;28;20644;-85
2022/06/22 14:11:15;;;;;;;13.95;3.60;;;25.20;36.40;;;;;;5067950;28;20196;-84
2022/06/22 14:14:01;;;;;;;14.73;4.38;;;25.00;36.20;;;;;;5062918;28;20583;-84
2022/06/22 14:16:36;;;;;;;12.95;3.80;;;24.80;36.10;;;;;;5064822;28;20739;-87
2022/06/22 14:19:40;;;;;;;11.05;3.83;;;24.50;35.80;;;;;;5073405;28;20200;-84
2022/06/22 14:22:44;;;;;;;14.15;4.05;;;24.40;37.70;;;;;;5066176;28;20198;-84
2022/06/22 14:25:42;;;;;;;16.95;4.07;;;24.20;39.10;;;;;;5077251;28;20280;-85
2022/06/22 14:28:19;;;;;;;7.97;3.88;;;24.10;41.40;;;;;;5062312;28;20198;-85